Latest Coastal Weather Observations for Wilsons Promontory

IDV60701

Issued at 12:31 am EST Wednesday 1 July 2015 (issued every 10 minutes, with the page automatically refreshed every 10 minutes)

About coastal observations | Map of coastal stations | Coastal observations for VIC | Marine services | Other Formats
Station Details ID: 085096 Name: WILSONS PROMONTORY LIGHTHOUSE Lat: -39.13 Lon: 146.42 Height: 95.0 m
Data from the previous 72 hours. | See also: Recent months at Wilsons Promontory
Date/Time
EST
Temp

°C
Wind Pressure Rain
since 9am
mm
Weather Cloud Vis
km
Sea
Height
m
Swell
Dir
 
Speed
knots
Gust
knots
hPa Trend Height
m
Period
s
Dir
01/12:30am 10.8 W 10 15 1025.8 - 0.6 - - - - - - -
01/12:00am 11.0 W 11 16 1026.1 - 0.6 - - - - - - -
 
Date/Time
EST
Temp

°C
Wind Pressure Rain
since 9am
mm
Weather Cloud Vis
km
Sea
Height
m
Swell
Dir
 
Speed
knots
Gust
knots
hPa Trend Height
m
Period
s
Dir
30/11:30pm 10.8 W 10 15 1026.1 - 0.6 - - - - - - -
30/11:00pm 10.6 W 11 16 1026.1 - 0.6 - - - - - - -
30/10:30pm 10.5 W 12 17 1026.2 - 0.6 - - - - - - -
30/10:00pm 10.8 W 11 15 1026.2 - 0.6 - - - - - - -
30/09:30pm 10.9 W 13 17 1026.3 - 0.6 - - - - - - -
30/09:00pm 10.8 W 13 18 1026.3 - 0.6 - - - - - - -
30/08:30pm 10.7 W 14 22 1025.9 - 0.6 - - - - - - -
30/08:00pm 10.8 WNW 12 18 1026.1 - 0.6 - - - - - - -
30/07:30pm 10.7 W 15 21 1026.0 - 0.4 - - - - - - -
30/07:00pm 10.8 W 14 21 1025.9 - 0.2 - - - - - - -
30/06:30pm 10.9 W 15 21 1025.8 - 0.2 - - - - - - -
30/06:00pm 11.0 W 14 20 1025.9 - 0.0 - - - - - - -
30/05:30pm 11.1 W 13 19 1025.5 - 0.0 - - - - - - -
30/05:00pm 11.2 NW 15 21 1025.3 - 0.0 - - - - - - -
30/04:30pm 11.4 W 13 19 1025.4 - 0.0 - - - - - - -
30/04:00pm 11.2 W 13 21 1025.2 - 0.0 - - - - - - -
30/03:32pm 11.1 W 16 26 1025.0 - 0.0 - - - - - - -
30/03:30pm 11.1 W 17 26 1025.0 - 0.0 - - - - - - -
30/03:28pm 11.1 W 16 26 1025.0 - 0.0 - - - - - - -
30/03:00pm 11.2 W 16 23 1025.2 - 0.0 - - - - - - -
30/02:30pm 11.1 WNW 16 21 1025.0 - 0.0 - - - - - - -
30/02:00pm 11.1 W 13 20 1025.2 - 0.0 - - - - - - -
30/01:30pm 11.1 W 16 25 1025.2 - 0.0 - - - - - - -
30/01:02pm 11.1 WNW 18 28 1025.4 - 0.0 - - - - - - -
30/01:00pm 11.3 NW 19 26 1025.4 - 0.0 - - - - - - -
30/12:30pm 11.4 WNW 17 22 1026.0 - 0.0 - - - - - - -
30/12:07pm 11.4 WNW 19 30 1026.1 - 0.0 - - - - - - -
30/11:30am 11.3 WNW 14 21 1026.8 - 0.0 - - - - - - -
30/11:00am 11.2 NW 14 22 1027.3 - 0.0 - - - - - - -
30/10:46am 11.0 NW 15 25 1027.4 - 0.0 - - - - - - -
30/10:30am 10.8 WNW 13 22 1027.5 - 0.0 - - - - - - -
30/10:13am 10.6 WNW 16 28 1027.6 - 0.0 - - - - - - -
30/10:00am 10.5 NW 12 21 1027.7 - 0.0 - - - - - - -
30/09:30am 10.5 NW 17 25 1027.5 - 0.0 - - - - - - -
30/08:30am 10.9 WNW 12 17 1027.4 - 0.0 - - - - - - -
30/08:00am 10.9 NW 10 14 1027.3 - 0.0 - - - - - - -
30/07:30am 10.9 NW 11 16 1027.3 - 0.0 - - - - - - -
30/07:00am 11.1 WNW 12 16 1027.2 - 0.0 - - - - - - -
30/06:30am 11.2 W 9 12 1027.1 - 0.0 - - - - - - -
30/06:00am 11.3 WNW 9 13 1027.1 - 0.0 - - - - - - -
30/05:30am 11.4 WNW 9 12 1026.8 - 0.0 - - - - - - -
30/05:00am 11.7 W 6 11 1026.7 - 0.0 - - - - - - -
30/04:30am 11.4 W 7 11 1026.9 - 0.0 - - - - - - -
30/04:00am 11.5 W 8 13 1026.8 - 0.0 - - - - - - -
30/03:30am 11.4 W 10 14 1027.2 - 0.0 - - - - - - -
30/03:00am 11.5 W 8 12 1027.3 - 0.0 - - - - - - -
30/02:30am 11.4 WSW 8 14 1027.4 - 0.0 - - - - - - -
30/02:00am 11.3 W 10 14 1027.6 - 0.0 - - - - - - -
30/01:30am 11.1 WNW 10 16 1027.7 - 0.0 - - - - - - -
30/01:00am 11.1 W 13 18 1027.9 - 0.0 - - - - - - -
30/12:30am 11.0 W 11 16 1028.2 - 0.0 - - - - - - -
30/12:00am 11.0 W 12 16 1028.5 - 0.0 - - - - - - -
 
Date/Time
EST
Temp

°C
Wind Pressure Rain
since 9am
mm
Weather Cloud Vis
km
Sea
Height
m
Swell
Dir
 
Speed
knots
Gust
knots
hPa Trend Height
m
Period
s
Dir
29/11:30pm 11.0 W 10 16 1028.4 - 0.0 - - - - - - -
29/11:00pm 11.2 W 11 16 1028.4 - 0.0 - - - - - - -
29/10:30pm 11.4 WSW 8 13 1028.4 - 0.0 - - - - - - -
29/10:00pm 11.4 W 9 13 1028.7 - 0.0 - - - - - - -
29/09:30pm 11.5 W 15 21 1028.8 - 0.0 - - - - - - -
29/09:00pm 11.5 W 14 21 1029.2 - 0.0 - - - - - - -
29/08:30pm 11.6 W 12 18 1029.3 - 0.0 - - - - - - -
29/08:00pm 11.5 W 10 16 1029.6 - 0.0 - - - - - - -
29/07:30pm 11.5 WSW 10 21 1029.4 - 0.0 - - - - - - -
29/07:00pm 11.5 W 13 19 1029.3 - 0.0 - - - - - - -
29/06:30pm 11.8 W 10 18 1029.0 - 0.0 - - - - - - -
29/06:00pm 11.6 W 14 19 1029.4 - 0.0 - - - - - - -
29/05:30pm 11.5 WNW 15 21 1029.2 - 0.0 - - - - - - -
29/05:00pm 11.8 W 16 22 1029.1 - 0.0 - - - - - - -
29/04:30pm 11.8 W 15 23 1029.2 - 0.0 - - - - - - -
29/04:00pm 12.1 W 19 29 1029.2 - 0.0 - - - - - - -
29/03:35pm 12.2 W 18 30 1029.1 - 0.0 - - - - - - -
29/03:30pm 12.3 W 18 24 1029.2 - 0.0 - - - - - - -
29/03:00pm 12.2 WNW 13 22 1029.5 - 0.0 - - - - - - -
29/02:43pm 12.1 W 17 27 1029.2 - 0.0 - - - - - - -
29/02:30pm 12.2 W 18 25 1029.2 - 0.0 - - - - - - -
29/02:24pm 12.2 W 19 29 1029.2 - 0.0 - - - - - - -
29/02:00pm 12.4 W 23 31 1029.0 - 0.0 - - - - - - -
29/01:30pm 12.6 W 20 30 1029.2 - 0.0 - - - - - - -
29/01:08pm 12.6 W 21 31 1029.6 - 0.0 - - - - - - -
29/01:00pm 12.7 W 22 29 1029.5 - 0.0 - - - - - - -
29/12:41pm 12.8 W 20 30 1029.6 - 0.0 - - - - - - -
29/12:30pm 12.7 W 22 28 1030.0 - 0.0 - - - - - - -
29/12:02pm 12.8 W 15 25 1030.3 - 0.0 - - - - - - -
29/12:00pm 12.8 W 15 23 1030.5 - 0.0 - - - - - - -
29/11:30am 12.6 W 19 29 1030.7 - 0.0 - - - - - - -
29/11:27am 12.5 W 19 29 1030.7 - 0.0 - - - - - - -
29/11:00am 12.8 W 21 29 1030.8 - 0.0 - - - - - - -
29/10:30am 12.6 W 19 27 1031.1 - 0.0 - - - - - - -
29/10:21am 12.9 W 17 27 1031.2 - 0.0 - - - - - - -
29/10:00am 12.5 W 14 22 1031.6 - 0.0 - - - - - - -
29/09:30am 12.4 W 16 23 1031.5 - 0.0 - - - - - - -
29/09:00am 12.4 W 16 23 1031.6 - 0.0 - - - - - - -
29/08:44am 12.2 W 15 25 1031.6 - 0.0 - - - - - - -
29/08:30am 12.1 W 15 22 1031.6 - 0.0 - - - - - - -
29/08:00am 12.1 W 13 22 1031.2 - 0.0 - - - - - - -
29/07:30am 12.1 W 16 23 1030.9 - 0.0 - - - - - - -
29/07:00am 11.9 W 17 24 1030.6 - 0.0 - - - - - - -
29/06:30am 11.8 W 19 25 1030.3 - 0.0 - - - - - - -
29/06:05am 11.5 W 18 29 1030.3 - 0.0 - - - - - - -
29/06:00am 11.5 W 18 26 1030.3 - 0.0 - - - - - - -
29/05:30am 11.6 W 18 26 1030.3 - 0.0 - - - - - - -
29/05:00am 11.4 W 19 26 1030.4 - 0.0 - - - - - - -
29/04:30am 11.5 W 16 26 1030.4 - 0.0 - - - - - - -
29/04:00am 11.7 W 17 27 1030.0 - 0.0 - - - - - - -
29/03:30am 11.5 WNW 15 25 1030.4 - 0.0 - - - - - - -
29/03:27am 11.5 WNW 15 25 1030.4 - 0.0 - - - - - - -
29/03:00am 11.5 WNW 17 24 1030.6 - 0.0 - - - - - - -
29/02:30am 11.7 W 21 29 1030.2 - 0.0 - - - - - - -
29/02:02am 11.8 WNW 21 31 1030.4 - 0.0 - - - - - - -
29/02:00am 11.7 WNW 22 31 1030.4 - 0.0 - - - - - - -
29/01:30am 11.8 W 20 30 1030.4 - 0.0 - - - - - - -
29/01:28am 11.8 W 20 30 1030.4 - 0.0 - - - - - - -
29/01:00am 11.8 W 22 31 1030.3 - 0.0 - - - - - - -
29/12:32am 11.7 W 20 30 1030.5 - 0.0 - - - - - - -
29/12:30am 11.8 W 21 30 1030.4 - 0.0 - - - - - - -
29/12:00am 11.6 W 21 31 1031.0 - 0.0 - - - - - - -
 
Date/Time
EST
Temp

°C
Wind Pressure Rain
since 9am
mm
Weather Cloud Vis
km
Sea
Height
m
Swell
Dir
 
Speed
knots
Gust
knots
hPa Trend Height
m
Period
s
Dir
28/11:42pm 11.7 W 22 32 1030.8 - 0.0 - - - - - - -
28/11:30pm 11.7 W 20 29 1030.8 - 0.0 - - - - - - -
28/11:00pm 11.6 W 20 30 1031.1 - 0.0 - - - - - - -
28/10:42pm 11.7 W 21 31 1031.1 - 0.0 - - - - - - -
28/10:30pm 11.7 W 22 31 1031.1 - 0.0 - - - - - - -
28/10:17pm 11.8 W 21 31 1031.1 - 0.0 - - - - - - -
28/10:00pm 11.7 W 22 31 1031.1 - 0.0 - - - - - - -
28/09:30pm 11.5 W 20 31 1031.0 - 0.0 - - - - - - -
28/09:00pm 11.4 W 21 32 1031.2 - 0.0 - - - - - - -
28/08:33pm 11.5 W 21 31 1031.3 - 0.0 - - - - - - -
28/08:30pm 11.6 W 20 29 1031.4 - 0.0 - - - - - - -
28/08:08pm 11.8 W 18 28 1031.5 - 0.0 - - - - - - -
28/08:00pm 11.7 W 20 29 1031.4 - 0.0 - - - - - - -
28/07:45pm 12.1 W 21 33 1031.2 - 0.0 - - - - - - -
28/07:30pm 12.0 W 22 30 1031.2 - 0.0 - - - - - - -
28/07:14pm 12.0 W 18 29 1031.3 - 0.0 - - - - - - -
28/07:00pm 12.0 W 21 28 1031.0 - 0.0 - - - - - - -
28/06:30pm 11.5 W 19 31 1031.0 - 0.0 - - - - - - -
28/06:00pm 11.4 W 18 29 1030.9 - 0.0 - - - - - - -
28/05:34pm 11.6 W 20 30 1030.5 - 0.0 - - - - - - -
28/05:30pm 11.3 W 23 30 1030.4 - 0.0 - - - - - - -
28/05:00pm 12.1 W 25 36 1030.0 - 0.0 - - - - - - -
28/04:30pm 12.0 W 21 33 1030.5 - 0.0 - - - - - - -
28/04:01pm 12.0 W 20 30 1030.3 - 0.0 - - - - - - -
28/04:00pm 12.1 W 21 30 1030.3 - 0.0 - - - - - - -
28/03:30pm 12.3 W 21 31 1030.0 - 0.0 - - - - - - -
28/03:00pm 12.4 W 24 35 1029.9 - 0.0 - - - - - - -
28/02:30pm 12.3 W 22 32 1029.8 - 0.0 - - - - - - -
28/02:02pm 12.4 W 22 32 1029.9 - 0.0 - - - - - - -
28/02:00pm 12.4 W 23 32 1029.9 - 0.0 - - - - - - -
28/01:38pm 12.6 W 20 30 1030.1 - 0.0 - - - - - - -
28/01:30pm 12.4 W 20 29 1029.9 - 0.0 - - - - - - -
28/01:00pm 12.4 W 26 39 1029.9 - 0.0 - - - - - - -
28/12:30pm 12.5 W 26 36 1029.9 - 0.0 - - - - - - -
28/12:01pm 12.6 W 22 32 1030.5 - 0.0 - - - - - - -
28/12:00pm 12.6 W 22 31 1030.7 - 0.0 - - - - - - -
28/11:31am 12.9 W 19 29 1031.0 - 0.0 - - - - - - -
28/11:30am 12.9 W 20 29 1031.0 - 0.0 - - - - - - -
28/11:06am 12.6 W 21 31 1031.0 - 0.0 - - - - - - -
28/11:00am 12.7 W 20 28 1031.2 - 0.0 - - - - - - -
28/10:30am 12.9 W 20 27 1031.0 - 0.0 - - - - - - -
28/10:00am 13.0 W 16 24 1031.0 - 0.0 - - - - - - -
28/09:31am 12.7 W 19 29 1030.8 - 0.0 - - - - - - -
28/09:30am 12.8 W 18 27 1030.8 - 0.0 - - - - - - -
28/09:05am 12.2 W 18 31 1030.5 - 0.0 - - - - - - -
28/09:00am 12.1 W 19 27 1030.5 - 0.6 - - - - - - -
28/08:30am 11.8 W 24 30 1030.0 - 0.6 - - - - - - -
28/08:00am 11.7 W 26 37 1029.7 - 0.6 - - - - - - -
28/07:48am 11.7 W 27 37 1029.7 - 0.6 - - - - - - -
28/07:30am 11.6 W 27 34 1029.4 - 0.6 - - - - - - -
28/07:00am 11.5 W 21 31 1029.3 - 0.6 - - - - - - -
28/06:56am 11.4 W 19 29 1029.4 - 0.6 - - - - - - -
28/06:30am 11.4 W 21 30 1029.3 - 0.6 - - - - - - -
28/06:24am 11.4 W 20 30 1029.3 - 0.6 - - - - - - -
28/06:00am 11.5 W 21 29 1029.2 - 0.6 - - - - - - -
28/05:30am 11.6 W 24 30 1028.9 - 0.6 - - - - - - -
28/05:00am 11.8 W 23 29 1028.7 - 0.6 - - - - - - -
28/04:30am 12.0 W 21 26 1028.7 - 0.6 - - - - - - -
28/04:00am 12.0 W 19 29 1028.6 - 0.6 - - - - - - -
28/03:30am 12.0 W 24 34 1028.6 - 0.6 - - - - - - -
28/03:00am 11.8 W 23 35 1028.9 - 0.6 - - - - - - -
28/02:30am 11.7 WNW 18 32 1029.0 - 0.6 - - - - - - -
28/02:00am 11.6 W 21 33 1028.8 - 0.6 - - - - - - -
28/01:30am 11.5 WNW 23 35 1028.6 - 0.4 - - - - - - -
28/01:00am 11.3 WNW 22 33 1028.5 - 0.4 - - - - - - -
28/12:34am 11.3 WNW 21 31 1028.8 - 0.4 - - - - - - -

Other Formats:

Comma delimited format used in spreadsheet applications
http://www.bom.gov.au/fwo/IDV60701/IDV60701.94893.axf

JavaScript Object Notation format (JSON) in row-major order
http://www.bom.gov.au/fwo/IDV60701/IDV60701.94893.json